Time;durP1;ratioP1;P1;durP2;ratioP2;P2;SDS_P1;SDS_P2;PMS_P1;PMS_P2;Temp;Humidity;BMP_temperature;BMP_pressure;BME280_temperature;BME280_humidity;BME280_pressure;Samples;Min_cycle;Max_cycle;Signal;HPM_P1;HPM_P2
2022/02/17 00:01:13;;;;;;;2.93;1.70;;;;;;;;;;5101542;27;20999;-83
2022/02/17 00:03:40;;;;;;;3.70;2.20;;;;;;;;;;5122751;27;20449;-83
2022/02/17 00:06:10;;;;;;;3.20;1.40;;;;;;;;;;5129832;27;20945;-82
2022/02/17 00:08:37;;;;;;;2.03;1.50;;;;;;;;;;5126102;27;20475;-81
2022/02/17 00:11:04;;;;;;;3.00;1.77;;;;;;;;;;5111224;28;20459;-83
2022/02/17 00:13:36;;;;;;;4.60;2.57;;;;;;;;;;5111177;28;20450;-84
2022/02/17 00:16:03;;;;;;;4.90;2.13;;;;;;;;;;5114266;27;20951;-83
2022/02/17 00:18:30;;;;;;;3.00;1.80;;;;;;;;;;5116242;27;20479;-84
2022/02/17 00:20:58;;;;;;;5.20;2.67;;;;;;;;;;5126969;27;20809;-84
2022/02/17 00:23:25;;;;;;;9.63;3.67;;;;;;;;;;5119069;27;21005;-83
2022/02/17 00:25:53;;;;;;;7.37;2.33;;;;;;;;;;5110442;28;20825;-82
2022/02/17 00:28:20;;;;;;;11.80;3.20;;;;;;;;;;5111308;28;21170;-83
2022/02/17 00:30:48;;;;;;;5.93;2.13;;;;;;;;;;5105906;28;20912;-82
2022/02/17 00:33:15;;;;;;;5.63;2.03;;;;;;;;;;5109003;28;20453;-83
2022/02/17 00:35:42;;;;;;;3.20;1.90;;;;;;;;;;5111678;28;20445;-84
2022/02/17 00:38:10;;;;;;;2.80;2.20;;;;;;;;;;5115527;27;20803;-84
2022/02/17 00:40:37;;;;;;;2.30;1.70;;;;;;;;;;5117218;27;20970;-85
2022/02/17 00:43:04;;;;;;;7.43;2.83;;;;;;;;;;5127272;27;20442;-84
2022/02/17 00:45:31;;;;;;;3.33;2.10;;;;;;;;;;5131101;27;20921;-84
2022/02/17 00:47:59;;;;;;;6.50;2.27;;;;;;;;;;5113257;27;20461;-82
2022/02/17 00:50:27;;;;;;;5.37;2.50;;;;;;;;;;5110795;28;20464;-83
2022/02/17 00:52:54;;;;;;;7.13;3.53;;;;;;;;;;5108739;28;20456;-85
2022/02/17 00:55:21;;;;;;;5.43;1.70;;;;;;;;;;5092137;28;20798;-86
2022/02/17 00:57:51;;;;;;;5.57;2.03;;;;;;;;;;5096493;28;20465;-81
2022/02/17 01:00:19;;;;;;;5.20;3.10;;;;;;;;;;5114311;28;20564;-85
2022/02/17 01:02:47;;;;;;;4.43;2.23;;;;;;;;;;5116033;28;20469;-81
2022/02/17 01:05:15;;;;;;;2.50;2.07;;;;;;;;;;5127182;28;20602;-85
2022/02/17 01:07:43;;;;;;;9.40;4.33;;;;;;;;;;5122533;28;20450;-83
2022/02/17 01:10:11;;;;;;;7.40;3.70;;;;;;;;;;5107879;28;21070;-85
2022/02/17 01:18:39;;;;;;;3.00;1.70;;;;;;;;;;5000654;28;20521;-82
2022/02/17 01:21:07;;;;;;;4.10;1.60;;;;;;;;;;5061450;28;21533;-81
2022/02/17 01:23:35;;;;;;;7.30;2.93;;;;;;;;;;5109317;28;20470;-83
2022/02/17 01:26:02;;;;;;;2.73;1.77;;;;;;;;;;5109717;28;20818;-82
2022/02/17 01:28:29;;;;;;;4.07;2.00;;;;;;;;;;5107586;28;20458;-82
2022/02/17 01:30:57;;;;;;;3.17;2.07;;;;;;;;;;5110426;28;20564;-83
2022/02/17 01:33:24;;;;;;;5.67;2.33;;;;;;;;;;5110550;28;20457;-83
2022/02/17 01:35:51;;;;;;;7.20;2.47;;;;;;;;;;5119896;27;20488;-83
2022/02/17 01:38:21;;;;;;;6.40;1.83;;;;;;;;;;5121358;27;21273;-83
2022/02/17 01:40:48;;;;;;;6.60;2.40;;;;;;;;;;5134255;27;21000;-81
2022/02/17 01:43:16;;;;;;;6.63;2.03;;;;;;;;;;5112732;27;20450;-80
2022/02/17 01:45:43;;;;;;;9.73;2.10;;;;;;;;;;5110151;28;20458;-84
2022/02/17 01:48:10;;;;;;;7.97;2.37;;;;;;;;;;5114126;28;20449;-81
2022/02/17 01:50:40;;;;;;;7.27;2.80;;;;;;;;;;5113692;28;20485;-81
2022/02/17 01:53:08;;;;;;;9.03;2.23;;;;;;;;;;5118591;27;20465;-80
2022/02/17 01:55:36;;;;;;;5.83;3.07;;;;;;;;;;5120351;27;20943;-82
2022/02/17 01:58:04;;;;;;;7.90;2.70;;;;;;;;;;5127185;27;20441;-85
2022/02/17 02:00:31;;;;;;;4.80;2.30;;;;;;;;;;5115263;27;20851;-83
2022/02/17 02:02:58;;;;;;;8.87;3.30;;;;;;;;;;5133838;27;20452;-82
2022/02/17 02:05:25;;;;;;;9.63;2.70;;;;;;;;;;5133904;27;20944;-81
2022/02/17 02:07:53;;;;;;;13.13;3.67;;;;;;;;;;5127455;27;20454;-82
2022/02/17 02:10:20;;;;;;;7.43;2.77;;;;;;;;;;5084637;27;20485;-84
2022/02/17 02:12:48;;;;;;;7.17;2.83;;;;;;;;;;5116197;27;20469;-81
2022/02/17 02:15:19;;;;;;;10.93;2.80;;;;;;;;;;5117194;27;20434;-81
2022/02/17 02:17:46;;;;;;;12.13;4.40;;;;;;;;;;5114140;28;20780;-84
2022/02/17 02:20:18;;;;;;;7.07;3.10;;;;;;;;;;5112710;28;20474;-81
2022/02/17 02:22:45;;;;;;;13.07;3.87;;;;;;;;;;5111415;28;20852;-82
2022/02/17 02:25:12;;;;;;;15.30;3.77;;;;;;;;;;5113530;28;20457;-81
2022/02/17 02:27:39;;;;;;;12.30;3.27;;;;;;;;;;5114641;27;20469;-82
2022/02/17 02:30:08;;;;;;;13.47;4.83;;;;;;;;;;5119652;27;20477;-82
2022/02/17 02:32:35;;;;;;;8.73;2.77;;;;;;;;;;5130500;27;20433;-83
2022/02/17 02:35:02;;;;;;;8.63;3.33;;;;;;;;;;5114607;27;20467;-82
2022/02/17 02:37:31;;;;;;;16.77;3.67;;;;;;;;;;5133938;27;20433;-83
2022/02/17 02:39:58;;;;;;;15.77;3.90;;;;;;;;;;5133650;27;20477;-84
2022/02/17 02:42:25;;;;;;;10.27;3.60;;;;;;;;;;5131799;27;20442;-83
2022/02/17 02:44:52;;;;;;;11.27;3.27;;;;;;;;;;5114901;28;20442;-84
2022/02/17 02:47:19;;;;;;;17.20;4.00;;;;;;;;;;5096777;28;20460;-82
2022/02/17 02:49:46;;;;;;;9.03;3.87;;;;;;;;;;5118244;27;20454;-82
2022/02/17 02:52:13;;;;;;;17.67;4.37;;;;;;;;;;5119293;27;20430;-83
2022/02/17 02:54:42;;;;;;;17.40;4.43;;;;;;;;;;5112380;27;20983;-82
2022/02/17 02:57:12;;;;;;;15.40;3.67;;;;;;;;;;5112512;28;20927;-84
2022/02/17 02:59:41;;;;;;;12.70;3.40;;;;;;;;;;5112338;28;20489;-85
2022/02/17 03:02:08;;;;;;;16.30;3.87;;;;;;;;;;5131787;27;20552;-84
2022/02/17 03:04:35;;;;;;;16.87;3.67;;;;;;;;;;5132452;27;20636;-82
2022/02/17 03:07:03;;;;;;;11.50;3.80;;;;;;;;;;5133576;27;20888;-83
2022/02/17 03:09:30;;;;;;;14.30;4.37;;;;;;;;;;5135109;27;20476;-82
2022/02/17 03:11:58;;;;;;;21.20;4.23;;;;;;;;;;5130198;27;21692;-84
2022/02/17 03:14:25;;;;;;;20.87;5.10;;;;;;;;;;5121479;27;20474;-81
2022/02/17 03:16:52;;;;;;;18.27;4.17;;;;;;;;;;5129320;27;20457;-80
2022/02/17 03:19:19;;;;;;;14.87;3.70;;;;;;;;;;5132538;27;20872;-85
2022/02/17 03:21:46;;;;;;;20.33;4.43;;;;;;;;;;5124851;27;20461;-83
2022/02/17 03:24:14;;;;;;;18.27;4.97;;;;;;;;;;5131950;27;20734;-81
2022/02/17 03:26:41;;;;;;;13.57;4.50;;;;;;;;;;5131880;27;20935;-81
2022/02/17 03:29:09;;;;;;;12.47;4.20;;;;;;;;;;5129052;27;20754;-81
2022/02/17 03:31:36;;;;;;;11.97;4.57;;;;;;;;;;5125482;27;20800;-84
2022/02/17 03:34:03;;;;;;;17.30;4.40;;;;;;;;;;5131592;27;20441;-80
2022/02/17 03:36:31;;;;;;;16.57;4.40;;;;;;;;;;5130853;27;20504;-84
2022/02/17 03:38:58;;;;;;;19.20;4.70;;;;;;;;;;5131130;27;20450;-85
2022/02/17 03:41:25;;;;;;;14.37;4.23;;;;;;;;;;5132873;27;20592;-81
2022/02/17 03:43:52;;;;;;;16.67;3.80;;;;;;;;;;5132024;27;20437;-85
2022/02/17 03:46:20;;;;;;;11.70;4.33;;;;;;;;;;5130046;27;20444;-84
2022/02/17 03:48:47;;;;;;;17.47;4.70;;;;;;;;;;5123341;27;20446;-83
2022/02/17 03:51:15;;;;;;;17.77;4.90;;;;;;;;;;5129775;27;20476;-84
2022/02/17 03:53:42;;;;;;;22.00;5.13;;;;;;;;;;5129729;27;20493;-83
2022/02/17 03:56:09;;;;;;;16.77;5.40;;;;;;;;;;5131864;27;20442;-85
2022/02/17 04:01:17;;;;;;;19.50;5.03;;;;;;;;;;5128635;27;20481;-82
2022/02/17 04:03:45;;;;;;;15.43;4.67;;;;;;;;;;5122660;27;20450;-81
2022/02/17 04:06:14;;;;;;;15.43;4.00;;;;;;;;;;5121925;27;20441;-80
2022/02/17 04:08:41;;;;;;;16.00;4.57;;;;;;;;;;5130838;27;20445;-83
2022/02/17 04:11:11;;;;;;;24.70;5.03;;;;;;;;;;5130161;27;20770;-83
2022/02/17 04:13:41;;;;;;;19.63;4.67;;;;;;;;;;5130608;27;20763;-83
2022/02/17 04:16:08;;;;;;;17.10;4.63;;;;;;;;;;5132025;27;20528;-83
2022/02/17 04:18:35;;;;;;;14.13;3.93;;;;;;;;;;5123681;27;20465;-82
2022/02/17 04:21:05;;;;;;;12.87;3.87;;;;;;;;;;5129552;27;20469;-83
2022/02/17 04:23:32;;;;;;;15.57;4.10;;;;;;;;;;5123238;27;20480;-81
2022/02/17 04:25:59;;;;;;;26.43;4.40;;;;;;;;;;5109457;27;20457;-84
2022/02/17 04:28:26;;;;;;;15.40;3.60;;;;;;;;;;5131639;27;20434;-84
2022/02/17 04:30:53;;;;;;;20.60;5.00;;;;;;;;;;5129954;27;20492;-84
2022/02/17 04:33:21;;;;;;;20.00;4.70;;;;;;;;;;5113734;27;20808;-81
2022/02/17 04:35:48;;;;;;;20.00;5.00;;;;;;;;;;5130358;27;20774;-82
2022/02/17 04:38:16;;;;;;;13.43;4.03;;;;;;;;;;5132081;27;20438;-82
2022/02/17 04:43:24;;;;;;;16.90;4.60;;;;;;;;;;5126372;27;20442;-83
2022/02/17 04:45:52;;;;;;;15.23;4.33;;;;;;;;;;5128008;27;20441;-83
2022/02/17 04:48:19;;;;;;;11.20;5.60;;;;;;;;;;5131418;27;20452;-84
2022/02/17 04:50:46;;;;;;;12.63;4.40;;;;;;;;;;5123611;27;20473;-81
2022/02/17 04:53:14;;;;;;;13.10;4.63;;;;;;;;;;5131383;27;20440;-82
2022/02/17 04:55:43;;;;;;;14.17;4.87;;;;;;;;;;5130974;27;20495;-85
2022/02/17 04:58:10;;;;;;;16.27;5.10;;;;;;;;;;5128772;28;20457;-85
2022/02/17 05:00:37;;;;;;;23.57;5.73;;;;;;;;;;5131815;28;20820;-86
2022/02/17 05:03:04;;;;;;;19.70;4.47;;;;;;;;;;5133060;28;20438;-83
2022/02/17 05:05:31;;;;;;;19.60;4.50;;;;;;;;;;5127640;28;20441;-80
2022/02/17 05:07:58;;;;;;;16.27;3.90;;;;;;;;;;5123584;28;21307;-83
2022/02/17 05:10:25;;;;;;;16.97;4.80;;;;;;;;;;5132546;27;20461;-83
2022/02/17 05:12:54;;;;;;;15.70;4.30;;;;;;;;;;5135149;27;20858;-82
2022/02/17 05:15:21;;;;;;;15.73;4.97;;;;;;;;;;5133974;27;20440;-82
2022/02/17 05:17:48;;;;;;;25.70;5.57;;;;;;;;;;5128988;27;20552;-84
2022/02/17 05:20:16;;;;;;;20.93;5.90;;;;;;;;;;5126123;27;20478;-82
2022/02/17 05:22:43;;;;;;;11.90;3.73;;;;;;;;;;5129329;27;20465;-83
2022/02/17 05:25:11;;;;;;;21.80;5.27;;;;;;;;;;5127196;27;20473;-83
2022/02/17 05:27:38;;;;;;;21.13;4.80;;;;;;;;;;5117947;27;20490;-84
2022/02/17 05:30:07;;;;;;;20.63;4.93;;;;;;;;;;5127971;27;20903;-83
2022/02/17 05:32:39;;;;;;;20.43;4.90;;;;;;;;;;5134293;27;20445;-83
2022/02/17 05:35:07;;;;;;;21.23;4.90;;;;;;;;;;5134176;27;20502;-85
2022/02/17 05:37:34;;;;;;;19.70;5.57;;;;;;;;;;5110896;27;20462;-84
2022/02/17 05:40:02;;;;;;;17.20;4.63;;;;;;;;;;5128614;27;20509;-85
2022/02/17 05:42:29;;;;;;;21.00;4.37;;;;;;;;;;5124047;27;20443;-82
2022/02/17 05:44:56;;;;;;;21.90;5.83;;;;;;;;;;5128320;27;20480;-84
2022/02/17 05:47:24;;;;;;;20.67;4.93;;;;;;;;;;5132613;27;20441;-84
2022/02/17 05:49:51;;;;;;;22.97;5.43;;;;;;;;;;5132470;27;20476;-84
2022/02/17 05:52:21;;;;;;;19.97;6.10;;;;;;;;;;5132726;27;20453;-82
2022/02/17 05:54:49;;;;;;;24.37;4.97;;;;;;;;;;5112228;27;20442;-80
2022/02/17 05:57:16;;;;;;;28.07;8.70;;;;;;;;;;5123062;27;20449;-86
2022/02/17 05:59:44;;;;;;;24.10;5.27;;;;;;;;;;5126387;27;20464;-85
2022/02/17 06:02:11;;;;;;;32.97;6.73;;;;;;;;;;5132732;27;20804;-82
2022/02/17 06:04:43;;;;;;;36.60;6.90;;;;;;;;;;5135327;27;20794;-82
2022/02/17 06:07:10;;;;;;;24.73;4.83;;;;;;;;;;5133035;27;20465;-84
2022/02/17 06:09:41;;;;;;;23.30;5.17;;;;;;;;;;5132255;27;20476;-90
2022/02/17 06:12:10;;;;;;;29.00;6.10;;;;;;;;;;5134494;27;20465;-85
2022/02/17 06:14:38;;;;;;;30.07;6.50;;;;;;;;;;5125309;27;20453;-81
2022/02/17 06:17:06;;;;;;;22.80;5.93;;;;;;;;;;5099823;28;20443;-84
2022/02/17 06:19:33;;;;;;;21.63;6.03;;;;;;;;;;5112371;27;20449;-81
2022/02/17 06:22:02;;;;;;;21.23;4.53;;;;;;;;;;5131364;27;20488;-84
2022/02/17 06:24:29;;;;;;;22.73;6.13;;;;;;;;;;5130750;27;20518;-82
2022/02/17 06:26:56;;;;;;;25.77;5.83;;;;;;;;;;5132022;27;20926;-85
2022/02/17 06:29:23;;;;;;;25.43;6.40;;;;;;;;;;5131743;27;20450;-86
2022/02/17 06:31:50;;;;;;;20.20;6.07;;;;;;;;;;5131235;27;20454;-88
2022/02/17 06:34:18;;;;;;;30.00;7.23;;;;;;;;;;5120126;27;20811;-84
2022/02/17 06:36:46;;;;;;;24.83;6.20;;;;;;;;;;5127298;27;20437;-84
2022/02/17 06:39:15;;;;;;;24.00;6.67;;;;;;;;;;5132434;27;20491;-82
2022/02/17 06:41:42;;;;;;;26.73;5.80;;;;;;;;;;5133710;27;20483;-83
2022/02/17 06:44:10;;;;;;;18.30;5.17;;;;;;;;;;5132153;27;20922;-78
2022/02/17 06:46:37;;;;;;;27.23;6.70;;;;;;;;;;5133933;27;20453;-82
2022/02/17 06:49:04;;;;;;;23.07;5.43;;;;;;;;;;5133944;27;20527;-83
2022/02/17 06:51:31;;;;;;;35.37;7.77;;;;;;;;;;5135015;27;20476;-82
2022/02/17 06:53:58;;;;;;;24.40;4.90;;;;;;;;;;5132648;27;20440;-83
2022/02/17 06:56:27;;;;;;;30.63;6.93;;;;;;;;;;5121385;27;20430;-83
2022/02/17 06:58:54;;;;;;;19.00;5.30;;;;;;;;;;5120166;27;20465;-82
2022/02/17 07:01:24;;;;;;;25.80;5.70;;;;;;;;;;5132776;27;20474;-85
2022/02/17 07:03:52;;;;;;;31.17;6.20;;;;;;;;;;5133084;27;20465;-82
2022/02/17 07:06:19;;;;;;;26.67;6.00;;;;;;;;;;5133282;27;20449;-82
2022/02/17 07:08:46;;;;;;;30.07;6.37;;;;;;;;;;5132282;27;20442;-85
2022/02/17 07:11:13;;;;;;;34.03;7.67;;;;;;;;;;5132312;27;20815;-83
2022/02/17 07:13:42;;;;;;;30.50;6.67;;;;;;;;;;5134725;27;20444;-84
2022/02/17 07:16:09;;;;;;;29.33;6.40;;;;;;;;;;5133124;27;20456;-83
2022/02/17 07:18:37;;;;;;;30.37;6.20;;;;;;;;;;5119942;27;20434;-79
2022/02/17 07:21:05;;;;;;;36.97;6.90;;;;;;;;;;5127142;27;20489;-80
2022/02/17 07:23:32;;;;;;;24.73;5.67;;;;;;;;;;5130749;27;20457;-79
2022/02/17 07:25:59;;;;;;;28.77;6.10;;;;;;;;;;5130486;27;20825;-80
2022/02/17 07:28:27;;;;;;;36.90;6.77;;;;;;;;;;5132047;27;20438;-80
2022/02/17 07:30:55;;;;;;;23.13;6.30;;;;;;;;;;5131893;27;20449;-79
2022/02/17 07:33:23;;;;;;;20.43;5.23;;;;;;;;;;5130692;27;20465;-79
2022/02/17 07:35:50;;;;;;;21.50;5.80;;;;;;;;;;5124481;27;20480;-78
2022/02/17 07:38:17;;;;;;;45.70;7.73;;;;;;;;;;5123050;27;20823;-80
2022/02/17 07:40:44;;;;;;;24.20;7.20;;;;;;;;;;5125661;27;20457;-79
2022/02/17 07:43:11;;;;;;;23.73;6.30;;;;;;;;;;5128494;27;20453;-78
2022/02/17 07:45:39;;;;;;;26.53;6.23;;;;;;;;;;5111848;27;20808;-80
2022/02/17 07:48:08;;;;;;;26.57;6.97;;;;;;;;;;5126679;27;20461;-80
2022/02/17 07:50:35;;;;;;;33.73;5.57;;;;;;;;;;5124982;27;20470;-83
2022/02/17 07:53:02;;;;;;;32.03;6.80;;;;;;;;;;5133009;27;20505;-81
2022/02/17 07:55:30;;;;;;;30.47;6.73;;;;;;;;;;5135754;27;20432;-82
2022/02/17 07:58:01;;;;;;;27.93;6.60;;;;;;;;;;5112964;27;20848;-81
2022/02/17 08:00:30;;;;;;;28.20;6.53;;;;;;;;;;5131899;27;20469;-83
2022/02/17 08:02:57;;;;;;;21.30;5.90;;;;;;;;;;5112220;27;20453;-83
2022/02/17 08:05:25;;;;;;;31.70;7.37;;;;;;;;;;5126259;27;20449;-80
2022/02/17 08:07:52;;;;;;;20.40;5.53;;;;;;;;;;5131832;27;20464;-82
2022/02/17 08:10:21;;;;;;;26.67;7.20;;;;;;;;;;5129077;27;20841;-81
2022/02/17 08:12:48;;;;;;;28.07;6.00;;;;;;;;;;5137088;27;20484;-81
2022/02/17 08:15:15;;;;;;;20.97;5.93;;;;;;;;;;5125021;27;20449;-83
2022/02/17 08:17:42;;;;;;;28.47;8.23;;;;;;;;;;5131518;27;20881;-84
2022/02/17 08:20:12;;;;;;;27.73;7.67;;;;;;;;;;5130846;27;20462;-86
2022/02/17 08:22:48;;;;;;;22.90;6.23;;;;;;;;;;5127890;27;20495;-82
2022/02/17 08:25:15;;;;;;;29.80;6.97;;;;;;;;;;5127761;27;20452;-86
2022/02/17 08:27:42;;;;;;;27.60;7.07;;;;;;;;;;5130469;27;20442;-84
2022/02/17 08:30:10;;;;;;;26.10;6.83;;;;;;;;;;5122311;27;20473;-81
2022/02/17 08:32:37;;;;;;;32.33;7.37;;;;;;;;;;5128338;27;20456;-84
2022/02/17 08:35:05;;;;;;;23.60;7.27;;;;;;;;;;5128840;27;20458;-83
2022/02/17 08:37:32;;;;;;;26.17;6.80;;;;;;;;;;5130599;27;20448;-81
2022/02/17 08:40:00;;;;;;;24.50;6.47;;;;;;;;;;5128971;27;20473;-81
2022/02/17 08:42:28;;;;;;;22.93;6.17;;;;;;;;;;5129641;27;20985;-84
2022/02/17 08:45:10;;;;;;;;;;;;;;;;;;;;;
2022/02/17 08:48:10;;;;;;;23.80;6.40;;;;;;;;;;5131019;27;20433;-83
2022/02/17 08:50:39;;;;;;;26.67;6.20;;;;;;;;;;5130819;22;20487;-85
2022/02/17 08:53:06;;;;;;;32.83;9.37;;;;;;;;;;5083013;28;20927;-81
2022/02/17 08:55:37;;;;;;;21.67;6.57;;;;;;;;;;5088436;28;20443;-84
2022/02/17 08:58:05;;;;;;;27.53;6.70;;;;;;;;;;5073655;28;20531;-84
2022/02/17 09:00:32;;;;;;;34.27;7.47;;;;;;;;;;5068373;28;20543;-82
2022/02/17 09:02:59;;;;;;;31.20;6.77;;;;;;;;;;5073197;28;20486;-80
2022/02/17 09:05:27;;;;;;;30.47;7.27;;;;;;;;;;5088701;28;20436;-85
2022/02/17 09:07:59;;;;;;;20.83;7.80;;;;;;;;;;5086243;28;20470;-84
2022/02/17 09:10:27;;;;;;;25.03;6.67;;;;;;;;;;5089930;28;20481;-84
2022/02/17 09:12:55;;;;;;;20.63;7.50;;;;;;;;;;5087117;28;21002;-81
2022/02/17 09:15:22;;;;;;;17.10;4.53;;;;;;;;;;5083808;28;20803;-83
2022/02/17 09:17:49;;;;;;;21.63;6.20;;;;;;;;;;5086294;28;20459;-83
2022/02/17 09:20:17;;;;;;;14.20;4.67;;;;;;;;;;5087209;28;20459;-84
2022/02/17 09:22:44;;;;;;;22.20;7.00;;;;;;;;;;5055273;28;20985;-81
2022/02/17 09:25:12;;;;;;;18.40;6.40;;;;;;;;;;5057611;28;20542;-79
2022/02/17 09:27:39;;;;;;;27.07;6.03;;;;;;;;;;5087352;28;20446;-82
2022/02/17 09:30:09;;;;;;;26.40;5.63;;;;;;;;;;5085094;28;20489;-80
2022/02/17 09:32:36;;;;;;;16.13;4.67;;;;;;;;;;5082629;28;20435;-83
2022/02/17 09:35:03;;;;;;;25.30;6.00;;;;;;;;;;5067368;28;20448;-86
2022/02/17 09:37:30;;;;;;;21.13;5.33;;;;;;;;;;5066463;28;20466;-82
2022/02/17 09:39:59;;;;;;;18.57;6.10;;;;;;;;;;5085902;28;20483;-84
2022/02/17 09:42:27;;;;;;;17.73;5.00;;;;;;;;;;5085566;28;20510;-84
2022/02/17 09:44:55;;;;;;;17.93;6.00;;;;;;;;;;5068725;28;20539;-84
2022/02/17 09:47:24;;;;;;;19.70;5.30;;;;;;;;;;5076062;28;20804;-82
2022/02/17 09:49:51;;;;;;;24.20;5.03;;;;;;;;;;5082981;28;20467;-82
2022/02/17 09:52:18;;;;;;;19.53;5.60;;;;;;;;;;5073647;28;20471;-81
2022/02/17 09:54:51;;;;;;;12.63;4.53;;;;;;;;;;5087013;28;20478;-83
2022/02/17 09:57:21;;;;;;;16.57;4.87;;;;;;;;;;5080201;28;20452;-82
2022/02/17 09:59:48;;;;;;;17.93;4.93;;;;;;;;;;5086926;28;20942;-82
2022/02/17 10:02:24;;;;;;;14.00;4.40;;;;;;;;;;5092914;28;20907;-85
2022/02/17 10:04:55;;;;;;;19.40;4.40;;;;;;;;;;5079027;28;20828;-82
2022/02/17 10:07:30;;;;;;;24.73;6.43;;;;;;;;;;5084352;28;20444;-82
2022/02/17 10:10:00;;;;;;;14.03;4.63;;;;;;;;;;5088519;28;20482;-80
2022/02/17 10:12:27;;;;;;;14.10;3.90;;;;;;;;;;5090179;28;20458;-83
2022/02/17 10:14:59;;;;;;;19.43;4.80;;;;;;;;;;5079050;28;20562;-81
2022/02/17 10:17:27;;;;;;;16.87;4.70;;;;;;;;;;5077390;28;20427;-83
2022/02/17 10:19:57;;;;;;;12.93;4.70;;;;;;;;;;5080877;28;21467;-82
2022/02/17 10:22:30;;;;;;;17.30;4.73;;;;;;;;;;5080245;28;20476;-82
2022/02/17 10:27:46;;;;;;;14.43;4.60;;;;;;;;;;5078113;28;20460;-80
2022/02/17 10:30:19;;;;;;;12.60;4.50;;;;;;;;;;5076735;28;20459;-82
2022/02/17 10:32:56;;;;;;;11.37;4.00;;;;;;;;;;5068959;28;20460;-80
2022/02/17 10:35:28;;;;;;;10.37;3.53;;;;;;;;;;5088635;28;20497;-81
2022/02/17 10:38:08;;;;;;;;;;;;;;;;;;;;;
2022/02/17 10:40:36;;;;;;;19.40;4.10;;;;;;;;;;5077126;28;21093;-80
2022/02/17 10:43:07;;;;;;;14.43;4.20;;;;;;;;;;5073119;28;21033;-80
2022/02/17 10:45:47;;;;;;;17.10;4.23;;;;;;;;;;5074624;28;20435;-78
2022/02/17 10:48:17;;;;;;;14.67;4.73;;;;;;;;;;5072340;28;20438;-81
2022/02/17 10:50:45;;;;;;;11.53;3.80;;;;;;;;;;5082658;28;20551;-80
2022/02/17 10:53:16;;;;;;;15.30;4.20;;;;;;;;;;5085509;28;20454;-78
2022/02/17 10:55:51;;;;;;;11.60;3.03;;;;;;;;;;5093210;28;20443;-79
2022/02/17 10:58:19;;;;;;;14.13;3.83;;;;;;;;;;5114446;28;20438;-83
2022/02/17 11:00:50;;;;;;;10.17;3.00;;;;;;;;;;5098364;28;20489;-79
2022/02/17 11:03:19;;;;;;;12.73;3.70;;;;;;;;;;5100622;28;20878;-80
2022/02/17 11:05:46;;;;;;;11.07;3.80;;;;;;;;;;5110536;28;20438;-80
2022/02/17 11:08:14;;;;;;;12.73;3.40;;;;;;;;;;5111119;28;20434;-84
2022/02/17 11:10:42;;;;;;;12.87;3.50;;;;;;;;;;5111397;28;20463;-80
2022/02/17 11:13:12;;;;;;;11.67;3.30;;;;;;;;;;5086951;28;20479;-81
2022/02/17 11:15:40;;;;;;;11.80;3.00;;;;;;;;;;5102049;28;20523;-80
2022/02/17 11:18:07;;;;;;;12.70;3.37;;;;;;;;;;5111488;28;20438;-80
2022/02/17 11:20:37;;;;;;;8.37;3.07;;;;;;;;;;5112139;28;21040;-82
2022/02/17 11:23:05;;;;;;;8.10;3.67;;;;;;;;;;5102947;28;20573;-79
2022/02/17 11:25:34;;;;;;;8.23;2.83;;;;;;;;;;5099048;28;20457;-79
2022/02/17 11:28:02;;;;;;;7.77;3.20;;;;;;;;;;5081652;28;20974;-81
2022/02/17 11:30:31;;;;;;;9.97;2.80;;;;;;;;;;5082622;28;20459;-80
2022/02/17 11:33:21;;;;;;;8.73;2.87;;;;;;;;;;5106883;28;21001;-83
2022/02/17 11:36:24;;;;;;;8.43;2.87;;;;;;;;;;5093359;28;20427;-82
2022/02/17 11:38:55;;;;;;;9.27;3.10;;;;;;;;;;5098296;28;20489;-86
2022/02/17 11:41:23;;;;;;;10.17;3.23;;;;;;;;;;5098785;28;20455;-85
2022/02/17 11:43:54;;;;;;;13.77;3.90;;;;;;;;;;5105347;28;20494;-82
2022/02/17 11:46:35;;;;;;;12.83;3.50;;;;;;;;;;5092593;28;20459;-83
2022/02/17 11:49:03;;;;;;;8.00;3.30;;;;;;;;;;5089868;28;20445;-83
2022/02/17 11:51:31;;;;;;;10.50;2.87;;;;;;;;;;5090980;28;20471;-81
2022/02/17 11:54:16;;;;;;;8.47;2.93;;;;;;;;;;5092877;28;20439;-85
2022/02/17 11:56:47;;;;;;;9.10;3.10;;;;;;;;;;5103270;28;20450;-82
2022/02/17 11:59:23;;;;;;;14.93;3.40;;;;;;;;;;5082134;28;20462;-82
2022/02/17 12:01:50;;;;;;;12.90;3.83;;;;;;;;;;5097374;28;20465;-81
2022/02/17 12:04:19;;;;;;;7.97;3.30;;;;;;;;;;5103266;28;20512;-81
2022/02/17 12:06:50;;;;;;;8.40;4.00;;;;;;;;;;5105586;28;20494;-84
2022/02/17 12:09:32;;;;;;;9.37;3.70;;;;;;;;;;5090437;28;20458;-83
2022/02/17 12:12:22;;;;;;;8.47;2.93;;;;;;;;;;5094500;28;20491;-81
2022/02/17 12:14:50;;;;;;;9.67;2.70;;;;;;;;;;5110984;28;20458;-81
2022/02/17 12:17:17;;;;;;;6.00;3.13;;;;;;;;;;5096172;28;20426;-85
2022/02/17 12:19:46;;;;;;;6.33;2.73;;;;;;;;;;5081683;28;20976;-83
2022/02/17 12:22:15;;;;;;;8.43;3.47;;;;;;;;;;5110456;28;20486;-78
2022/02/17 12:24:44;;;;;;;12.20;3.37;;;;;;;;;;5109735;28;20972;-78
2022/02/17 12:27:12;;;;;;;10.10;2.43;;;;;;;;;;5090071;28;20501;-83
2022/02/17 12:29:39;;;;;;;7.40;3.20;;;;;;;;;;5089271;28;20781;-82
2022/02/17 12:32:07;;;;;;;8.00;3.20;;;;;;;;;;5086180;28;20464;-83
2022/02/17 12:34:36;;;;;;;6.77;2.60;;;;;;;;;;5098098;28;20470;-81
2022/02/17 12:37:03;;;;;;;10.60;3.37;;;;;;;;;;5076572;28;20443;-82
2022/02/17 12:39:32;;;;;;;7.93;3.17;;;;;;;;;;5071981;28;20485;-83
2022/02/17 12:42:00;;;;;;;7.23;2.90;;;;;;;;;;5091160;28;20866;-83
2022/02/17 12:44:28;;;;;;;6.20;3.03;;;;;;;;;;5072338;28;20438;-83
2022/02/17 12:46:55;;;;;;;7.27;2.97;;;;;;;;;;5073232;28;20794;-84
2022/02/17 12:49:22;;;;;;;8.53;2.60;;;;;;;;;;5107162;28;20450;-82
2022/02/17 12:51:50;;;;;;;10.03;2.60;;;;;;;;;;5107419;28;20486;-82
2022/02/17 12:54:17;;;;;;;6.03;2.30;;;;;;;;;;5094721;28;20427;-83
2022/02/17 12:56:45;;;;;;;5.77;2.23;;;;;;;;;;5098428;28;20428;-83
2022/02/17 12:59:13;;;;;;;11.07;2.90;;;;;;;;;;5094428;28;20940;-82
2022/02/17 13:01:41;;;;;;;5.20;2.50;;;;;;;;;;5089255;28;21093;-87
2022/02/17 13:04:08;;;;;;;7.87;2.93;;;;;;;;;;5090483;28;20471;-82
2022/02/17 13:06:36;;;;;;;6.87;3.20;;;;;;;;;;5107516;28;20453;-81
2022/02/17 13:09:14;;;;;;;3.63;2.00;;;;;;;;;;5093843;28;20461;-84
2022/02/17 13:11:47;;;;;;;4.93;3.50;;;;;;;;;;5107705;28;20484;-84
2022/02/17 13:14:15;;;;;;;5.33;2.67;;;;;;;;;;5112335;28;20431;-86
2022/02/17 13:16:45;;;;;;;3.10;2.00;;;;;;;;;;5106384;28;20455;-84
2022/02/17 13:19:27;;;;;;;7.40;2.90;;;;;;;;;;5097032;28;20459;-82
2022/02/17 13:21:54;;;;;;;9.10;2.47;;;;;;;;;;5079943;28;20445;-82
2022/02/17 13:24:26;;;;;;;6.80;2.70;;;;;;;;;;5099435;28;20474;-82
2022/02/17 13:26:55;;;;;;;5.37;2.50;;;;;;;;;;5092923;28;20824;-82
2022/02/17 13:29:25;;;;;;;7.07;2.97;;;;;;;;;;5110171;28;20455;-81
2022/02/17 13:31:53;;;;;;;12.23;3.13;;;;;;;;;;5110115;28;20443;-82
2022/02/17 13:34:22;;;;;;;9.20;2.80;;;;;;;;;;5111674;28;20464;-82
2022/02/17 13:36:50;;;;;;;7.30;2.83;;;;;;;;;;5083911;28;20469;-80
2022/02/17 13:39:19;;;;;;;7.57;3.27;;;;;;;;;;5081083;28;20802;-81
2022/02/17 13:42:01;;;;;;;11.60;3.03;;;;;;;;;;5112208;28;20434;-79
2022/02/17 13:44:29;;;;;;;8.17;3.47;;;;;;;;;;5093103;28;20469;-80
2022/02/17 13:46:57;;;;;;;5.87;3.10;;;;;;;;;;5113393;28;20438;-80
2022/02/17 13:49:24;;;;;;;9.10;3.00;;;;;;;;;;5112408;28;20437;-82
2022/02/17 13:51:51;;;;;;;8.90;3.60;;;;;;;;;;5108682;28;21002;-82
2022/02/17 13:54:19;;;;;;;8.73;4.00;;;;;;;;;;5100314;28;20557;-80
2022/02/17 13:56:46;;;;;;;10.10;4.20;;;;;;;;;;5080005;28;20431;-81
2022/02/17 13:59:14;;;;;;;11.10;4.50;;;;;;;;;;5099975;28;20461;-82
2022/02/17 14:01:43;;;;;;;9.17;4.50;;;;;;;;;;5104223;28;20458;-80
2022/02/17 14:04:14;;;;;;;11.67;3.80;;;;;;;;;;5107586;28;20462;-80
2022/02/17 14:06:42;;;;;;;7.03;3.33;;;;;;;;;;5109708;28;20547;-83
2022/02/17 14:09:09;;;;;;;12.33;3.17;;;;;;;;;;5106255;28;20505;-83
2022/02/17 14:11:38;;;;;;;7.70;2.37;;;;;;;;;;5101203;28;20483;-83
2022/02/17 14:14:05;;;;;;;15.50;2.77;;;;;;;;;;5103573;28;20450;-81
2022/02/17 14:16:32;;;;;;;8.60;2.73;;;;;;;;;;5108697;28;20450;-81
2022/02/17 14:19:01;;;;;;;11.13;3.83;;;;;;;;;;5099784;28;20447;-82
2022/02/17 14:21:28;;;;;;;5.27;2.43;;;;;;;;;;5100264;28;20470;-79
2022/02/17 14:23:55;;;;;;;8.37;2.97;;;;;;;;;;5107298;28;20470;-83
2022/02/17 14:26:22;;;;;;;6.70;2.50;;;;;;;;;;5097768;28;20811;-82
2022/02/17 14:28:49;;;;;;;9.37;2.73;;;;;;;;;;5101230;28;20440;-81
2022/02/17 14:31:16;;;;;;;9.30;2.70;;;;;;;;;;5102266;28;20969;-81
2022/02/17 14:33:44;;;;;;;11.93;2.90;;;;;;;;;;5095364;28;20513;-80
2022/02/17 14:36:13;;;;;;;12.37;3.10;;;;;;;;;;5096200;28;20929;-84
2022/02/17 14:38:41;;;;;;;9.20;2.97;;;;;;;;;;5092894;28;20534;-77
2022/02/17 14:41:08;;;;;;;8.57;2.57;;;;;;;;;;5092091;28;20460;-80
2022/02/17 14:43:36;;;;;;;9.73;3.43;;;;;;;;;;5106328;28;20986;-81
2022/02/17 14:46:03;;;;;;;8.03;3.53;;;;;;;;;;5100122;28;20501;-82
2022/02/17 14:48:34;;;;;;;9.10;3.47;;;;;;;;;;5099223;28;20442;-77
2022/02/17 14:51:02;;;;;;;8.60;2.70;;;;;;;;;;5096000;28;21258;-79
2022/02/17 14:53:30;;;;;;;9.10;2.77;;;;;;;;;;5074856;28;20439;-80
2022/02/17 14:55:57;;;;;;;6.57;2.70;;;;;;;;;;5093880;28;20447;-78
2022/02/17 14:58:25;;;;;;;9.00;2.40;;;;;;;;;;5093297;28;20439;-82